sensor_id;sensor_type;location;lat;lon;timestamp;temperature;humidity
67054;SHT31;53960;51.826;5.850;2022-08-03T00:00:38;20.72;79.77
67054;SHT31;53960;51.826;5.850;2022-08-03T00:03:04;20.64;79.93
67054;SHT31;53960;51.826;5.850;2022-08-03T00:05:29;20.64;80.13
67054;SHT31;53960;51.826;5.850;2022-08-03T00:07:57;20.60;80.00
67054;SHT31;53960;51.826;5.850;2022-08-03T00:10:22;20.50;80.28
67054;SHT31;53960;51.826;5.850;2022-08-03T00:12:47;20.47;80.42
67054;SHT31;53960;51.826;5.850;2022-08-03T00:15:13;20.48;80.52
67054;SHT31;53960;51.826;5.850;2022-08-03T00:17:38;20.47;80.45
67054;SHT31;53960;51.826;5.850;2022-08-03T00:20:04;20.48;80.56
67054;SHT31;53960;51.826;5.850;2022-08-03T00:22:29;20.43;80.62
67054;SHT31;53960;51.826;5.850;2022-08-03T00:24:55;20.39;80.80
67054;SHT31;53960;51.826;5.850;2022-08-03T00:27:20;20.33;80.88
67054;SHT31;53960;51.826;5.850;2022-08-03T00:29:45;20.30;81.13
67054;SHT31;53960;51.826;5.850;2022-08-03T00:32:11;20.27;81.12
67054;SHT31;53960;51.826;5.850;2022-08-03T00:34:36;20.23;81.28
67054;SHT31;53960;51.826;5.850;2022-08-03T00:37:01;20.19;81.46
67054;SHT31;53960;51.826;5.850;2022-08-03T00:39:26;20.14;81.54
67054;SHT31;53960;51.826;5.850;2022-08-03T00:41:52;20.12;81.44
67054;SHT31;53960;51.826;5.850;2022-08-03T00:44:17;20.12;81.71
67054;SHT31;53960;51.826;5.850;2022-08-03T00:46:42;20.10;81.64
67054;SHT31;53960;51.826;5.850;2022-08-03T00:49:08;20.08;81.82
67054;SHT31;53960;51.826;5.850;2022-08-03T00:51:33;20.05;82.01
67054;SHT31;53960;51.826;5.850;2022-08-03T00:53:58;19.99;82.09
67054;SHT31;53960;51.826;5.850;2022-08-03T00:56:24;19.96;82.04
67054;SHT31;53960;51.826;5.850;2022-08-03T00:58:50;19.92;82.06
67054;SHT31;53960;51.826;5.850;2022-08-03T01:01:16;19.92;82.08
67054;SHT31;53960;51.826;5.850;2022-08-03T01:03:41;19.87;82.21
67054;SHT31;53960;51.826;5.850;2022-08-03T01:07:05;19.90;82.08
67054;SHT31;53960;51.826;5.850;2022-08-03T01:09:24;19.87;82.53
67054;SHT31;53960;51.826;5.850;2022-08-03T01:12:26;19.82;82.94
67054;SHT31;53960;51.826;5.850;2022-08-03T01:15:07;19.73;83.98
67054;SHT31;53960;51.826;5.850;2022-08-03T01:17:55;19.73;84.26
67054;SHT31;53960;51.826;5.850;2022-08-03T01:20:23;19.79;83.97
67054;SHT31;53960;51.826;5.850;2022-08-03T01:23:09;19.83;83.87
67054;SHT31;53960;51.826;5.850;2022-08-03T01:28:57;19.87;83.61
67054;SHT31;53960;51.826;5.850;2022-08-03T01:31:28;19.85;83.97
67054;SHT31;53960;51.826;5.850;2022-08-03T01:33:59;19.75;84.28
67054;SHT31;53960;51.826;5.850;2022-08-03T01:36:32;19.66;84.70
67054;SHT31;53960;51.826;5.850;2022-08-03T01:39:02;19.59;84.92
67054;SHT31;53960;51.826;5.850;2022-08-03T01:41:31;19.63;84.75
67054;SHT31;53960;51.826;5.850;2022-08-03T01:43:58;19.68;84.35
67054;SHT31;53960;51.826;5.850;2022-08-03T01:46:25;19.68;84.28
67054;SHT31;53960;51.826;5.850;2022-08-03T01:48:50;19.57;84.90
67054;SHT31;53960;51.826;5.850;2022-08-03T01:51:18;19.58;85.04
67054;SHT31;53960;51.826;5.850;2022-08-03T01:53:45;19.55;85.28
67054;SHT31;53960;51.826;5.850;2022-08-03T01:56:12;19.47;85.59
67054;SHT31;53960;51.826;5.850;2022-08-03T01:58:39;19.42;85.72
67054;SHT31;53960;51.826;5.850;2022-08-03T02:01:06;19.48;85.57
67054;SHT31;53960;51.826;5.850;2022-08-03T02:03:35;19.47;85.65
67054;SHT31;53960;51.826;5.850;2022-08-03T02:06:02;19.51;85.53
67054;SHT31;53960;51.826;5.850;2022-08-03T02:08:29;19.45;85.69
67054;SHT31;53960;51.826;5.850;2022-08-03T02:10:56;19.42;85.88
67054;SHT31;53960;51.826;5.850;2022-08-03T02:13:23;19.41;85.91
67054;SHT31;53960;51.826;5.850;2022-08-03T02:15:49;19.42;85.72
67054;SHT31;53960;51.826;5.850;2022-08-03T02:18:17;19.36;85.86
67054;SHT31;53960;51.826;5.850;2022-08-03T02:20:44;19.45;85.65
67054;SHT31;53960;51.826;5.850;2022-08-03T02:23:10;19.48;85.60
67054;SHT31;53960;51.826;5.850;2022-08-03T02:25:42;19.42;85.84
67054;SHT31;53960;51.826;5.850;2022-08-03T02:28:13;19.32;86.29
67054;SHT31;53960;51.826;5.850;2022-08-03T02:30:41;19.34;86.24
67054;SHT31;53960;51.826;5.850;2022-08-03T02:33:13;19.32;86.15
67054;SHT31;53960;51.826;5.850;2022-08-03T02:35:42;19.28;86.43
67054;SHT31;53960;51.826;5.850;2022-08-03T02:38:10;19.28;86.49
67054;SHT31;53960;51.826;5.850;2022-08-03T02:40:37;19.32;86.56
67054;SHT31;53960;51.826;5.850;2022-08-03T02:43:07;19.25;86.93
67054;SHT31;53960;51.826;5.850;2022-08-03T02:45:34;19.22;86.93
67054;SHT31;53960;51.826;5.850;2022-08-03T02:48:02;19.15;87.30
67054;SHT31;53960;51.826;5.850;2022-08-03T02:50:29;19.18;87.33
67054;SHT31;53960;51.826;5.850;2022-08-03T02:52:56;19.22;87.15
67054;SHT31;53960;51.826;5.850;2022-08-03T02:55:25;19.21;87.14
67054;SHT31;53960;51.826;5.850;2022-08-03T02:57:51;19.21;86.93
67054;SHT31;53960;51.826;5.850;2022-08-03T03:00:17;19.21;86.82
67054;SHT31;53960;51.826;5.850;2022-08-03T03:02:44;19.22;86.79
67054;SHT31;53960;51.826;5.850;2022-08-03T03:05:10;19.21;86.91
67054;SHT31;53960;51.826;5.850;2022-08-03T03:07:37;19.14;87.24
67054;SHT31;53960;51.826;5.850;2022-08-03T03:10:03;19.10;87.64
67054;SHT31;53960;51.826;5.850;2022-08-03T03:12:30;19.07;87.67
67054;SHT31;53960;51.826;5.850;2022-08-03T03:14:56;19.12;87.69
67054;SHT31;53960;51.826;5.850;2022-08-03T03:17:23;19.14;87.65
67054;SHT31;53960;51.826;5.850;2022-08-03T03:19:50;19.14;87.57
67054;SHT31;53960;51.826;5.850;2022-08-03T03:22:15;19.12;87.60
67054;SHT31;53960;51.826;5.850;2022-08-03T03:24:41;19.15;87.37
67054;SHT31;53960;51.826;5.850;2022-08-03T03:27:07;19.20;87.28
67054;SHT31;53960;51.826;5.850;2022-08-03T03:29:33;19.24;87.01
67054;SHT31;53960;51.826;5.850;2022-08-03T03:32:00;19.18;87.41
67054;SHT31;53960;51.826;5.850;2022-08-03T03:34:28;19.21;87.32
67054;SHT31;53960;51.826;5.850;2022-08-03T03:36:53;19.17;87.46
67054;SHT31;53960;51.826;5.850;2022-08-03T03:39:18;19.20;87.53
67054;SHT31;53960;51.826;5.850;2022-08-03T03:41:44;19.17;87.64
67054;SHT31;53960;51.826;5.850;2022-08-03T03:44:10;19.21;87.60
67054;SHT31;53960;51.826;5.850;2022-08-03T03:46:37;19.12;87.68
67054;SHT31;53960;51.826;5.850;2022-08-03T03:49:04;19.11;87.98
67054;SHT31;53960;51.826;5.850;2022-08-03T03:51:30;19.11;87.93
67054;SHT31;53960;51.826;5.850;2022-08-03T03:53:57;19.14;87.82
67054;SHT31;53960;51.826;5.850;2022-08-03T03:56:23;19.11;87.86
67054;SHT31;53960;51.826;5.850;2022-08-03T03:58:49;19.10;87.95
67054;SHT31;53960;51.826;5.850;2022-08-03T04:01:15;19.10;87.96
67054;SHT31;53960;51.826;5.850;2022-08-03T04:03:40;19.07;88.05
67054;SHT31;53960;51.826;5.850;2022-08-03T04:06:06;19.08;87.97
67054;SHT31;53960;51.826;5.850;2022-08-03T04:08:50;19.03;88.43
67054;SHT31;53960;51.826;5.850;2022-08-03T04:11:40;19.03;88.31
67054;SHT31;53960;51.826;5.850;2022-08-03T04:14:28;19.01;88.45
67054;SHT31;53960;51.826;5.850;2022-08-03T04:17:04;19.04;88.28
67054;SHT31;53960;51.826;5.850;2022-08-03T04:19:48;19.08;87.94
67054;SHT31;53960;51.826;5.850;2022-08-03T04:22:17;19.08;88.11
67054;SHT31;53960;51.826;5.850;2022-08-03T04:24:48;19.10;88.22
67054;SHT31;53960;51.826;5.850;2022-08-03T04:27:17;19.17;88.14
67054;SHT31;53960;51.826;5.850;2022-08-03T04:29:46;19.17;88.04
67054;SHT31;53960;51.826;5.850;2022-08-03T04:32:13;19.20;87.80
67054;SHT31;53960;51.826;5.850;2022-08-03T04:34:38;19.24;87.75
67054;SHT31;53960;51.826;5.850;2022-08-03T04:37:10;19.25;87.87
67054;SHT31;53960;51.826;5.850;2022-08-03T04:39:37;19.30;87.76
67054;SHT31;53960;51.826;5.850;2022-08-03T04:42:05;19.32;87.67
67054;SHT31;53960;51.826;5.850;2022-08-03T04:44:35;19.34;87.59
67054;SHT31;53960;51.826;5.850;2022-08-03T04:47:02;19.30;87.81
67054;SHT31;53960;51.826;5.850;2022-08-03T04:49:28;19.31;87.84
67054;SHT31;53960;51.826;5.850;2022-08-03T04:51:54;19.34;87.67
67054;SHT31;53960;51.826;5.850;2022-08-03T04:54:19;19.35;87.55
67054;SHT31;53960;51.826;5.850;2022-08-03T04:56:45;19.41;87.40
67054;SHT31;53960;51.826;5.850;2022-08-03T04:59:11;19.42;87.29
67054;SHT31;53960;51.826;5.850;2022-08-03T05:01:38;19.45;87.17
67054;SHT31;53960;51.826;5.850;2022-08-03T05:04:03;19.52;87.07
67054;SHT31;53960;51.826;5.850;2022-08-03T05:06:28;19.49;87.03
67054;SHT31;53960;51.826;5.850;2022-08-03T05:08:54;19.52;86.97
67054;SHT31;53960;51.826;5.850;2022-08-03T05:11:19;19.58;86.83
67054;SHT31;53960;51.826;5.850;2022-08-03T05:13:45;19.55;86.83
67054;SHT31;53960;51.826;5.850;2022-08-03T05:16:11;19.55;86.78
67054;SHT31;53960;51.826;5.850;2022-08-03T05:18:38;19.57;86.71
67054;SHT31;53960;51.826;5.850;2022-08-03T05:21:03;19.62;86.60
67054;SHT31;53960;51.826;5.850;2022-08-03T05:23:29;19.65;86.48
67054;SHT31;53960;51.826;5.850;2022-08-03T05:25:54;19.68;86.48
67054;SHT31;53960;51.826;5.850;2022-08-03T05:28:20;19.69;86.41
67054;SHT31;53960;51.826;5.850;2022-08-03T05:30:45;19.72;86.12
67054;SHT31;53960;51.826;5.850;2022-08-03T05:33:10;19.76;86.07
67054;SHT31;53960;51.826;5.850;2022-08-03T05:35:36;19.80;86.01
67054;SHT31;53960;51.826;5.850;2022-08-03T05:38:03;19.86;85.64
67054;SHT31;53960;51.826;5.850;2022-08-03T05:40:29;19.89;85.42
67054;SHT31;53960;51.826;5.850;2022-08-03T05:42:54;19.93;85.32
67054;SHT31;53960;51.826;5.850;2022-08-03T05:45:20;19.97;84.99
67054;SHT31;53960;51.826;5.850;2022-08-03T05:47:45;20.00;84.75
67054;SHT31;53960;51.826;5.850;2022-08-03T05:50:11;20.03;84.79
67054;SHT31;53960;51.826;5.850;2022-08-03T05:52:38;20.12;84.49
67054;SHT31;53960;51.826;5.850;2022-08-03T05:55:05;20.17;84.09
67054;SHT31;53960;51.826;5.850;2022-08-03T05:57:31;20.21;83.88
67054;SHT31;53960;51.826;5.850;2022-08-03T05:59:56;20.30;83.31
67054;SHT31;53960;51.826;5.850;2022-08-03T06:02:21;20.39;82.84
67054;SHT31;53960;51.826;5.850;2022-08-03T06:04:47;20.47;82.59
67054;SHT31;53960;51.826;5.850;2022-08-03T06:07:12;20.52;82.45
67054;SHT31;53960;51.826;5.850;2022-08-03T06:09:37;20.57;82.15
67054;SHT31;53960;51.826;5.850;2022-08-03T06:12:03;20.63;82.02
67054;SHT31;53960;51.826;5.850;2022-08-03T06:14:28;20.71;81.55
67054;SHT31;53960;51.826;5.850;2022-08-03T06:16:53;20.77;81.08
67054;SHT31;53960;51.826;5.850;2022-08-03T06:19:19;20.82;81.02
67054;SHT31;53960;51.826;5.850;2022-08-03T06:21:44;20.82;80.86
67054;SHT31;53960;51.826;5.850;2022-08-03T06:24:09;20.87;80.81
67054;SHT31;53960;51.826;5.850;2022-08-03T06:26:35;20.89;80.74
67054;SHT31;53960;51.826;5.850;2022-08-03T06:29:00;20.94;80.51
67054;SHT31;53960;51.826;5.850;2022-08-03T06:31:26;20.98;80.23
67054;SHT31;53960;51.826;5.850;2022-08-03T06:33:53;21.05;79.85
67054;SHT31;53960;51.826;5.850;2022-08-03T06:36:18;21.12;79.91
67054;SHT31;53960;51.826;5.850;2022-08-03T06:38:44;21.20;79.35
67054;SHT31;53960;51.826;5.850;2022-08-03T06:41:09;21.23;78.80
67054;SHT31;53960;51.826;5.850;2022-08-03T06:43:35;21.29;78.68
67054;SHT31;53960;51.826;5.850;2022-08-03T06:46:02;21.36;78.35
67054;SHT31;53960;51.826;5.850;2022-08-03T06:48:27;21.42;78.02
67054;SHT31;53960;51.826;5.850;2022-08-03T06:50:53;21.47;77.75
67054;SHT31;53960;51.826;5.850;2022-08-03T06:53:18;21.53;77.48
67054;SHT31;53960;51.826;5.850;2022-08-03T06:55:43;21.64;77.05
67054;SHT31;53960;51.826;5.850;2022-08-03T06:58:09;21.68;76.92
67054;SHT31;53960;51.826;5.850;2022-08-03T07:00:34;21.74;76.69
67054;SHT31;53960;51.826;5.850;2022-08-03T07:02:59;21.81;76.57
67054;SHT31;53960;51.826;5.850;2022-08-03T07:05:25;21.88;75.69
67054;SHT31;53960;51.826;5.850;2022-08-03T07:07:53;21.94;75.75
67054;SHT31;53960;51.826;5.850;2022-08-03T07:10:19;22.00;75.41
67054;SHT31;53960;51.826;5.850;2022-08-03T07:12:45;22.02;74.86
67054;SHT31;53960;51.826;5.850;2022-08-03T07:15:11;22.07;74.98
67054;SHT31;53960;51.826;5.850;2022-08-03T07:17:36;22.11;74.90
67054;SHT31;53960;51.826;5.850;2022-08-03T07:20:05;22.21;74.38
67054;SHT31;53960;51.826;5.850;2022-08-03T07:22:31;22.28;73.86
67054;SHT31;53960;51.826;5.850;2022-08-03T07:24:57;22.34;73.36
67054;SHT31;53960;51.826;5.850;2022-08-03T07:27:22;22.41;73.36
67054;SHT31;53960;51.826;5.850;2022-08-03T07:29:47;22.44;73.14
67054;SHT31;53960;51.826;5.850;2022-08-03T07:32:13;22.49;73.24
67054;SHT31;53960;51.826;5.850;2022-08-03T07:34:38;22.59;72.72
67054;SHT31;53960;51.826;5.850;2022-08-03T07:37:03;22.57;72.79
67054;SHT31;53960;51.826;5.850;2022-08-03T07:39:29;22.60;72.52
67054;SHT31;53960;51.826;5.850;2022-08-03T07:41:54;22.65;72.80
67054;SHT31;53960;51.826;5.850;2022-08-03T07:44:19;22.67;72.45
67054;SHT31;53960;51.826;5.850;2022-08-03T07:46:45;22.67;72.74
67054;SHT31;53960;51.826;5.850;2022-08-03T07:49:11;22.77;71.91
67054;SHT31;53960;51.826;5.850;2022-08-03T07:51:36;22.89;71.83
67054;SHT31;53960;51.826;5.850;2022-08-03T07:54:02;22.96;71.72
67054;SHT31;53960;51.826;5.850;2022-08-03T07:56:28;23.02;70.96
67054;SHT31;53960;51.826;5.850;2022-08-03T07:58:54;23.00;71.16
67054;SHT31;53960;51.826;5.850;2022-08-03T08:01:19;23.04;70.46
67054;SHT31;53960;51.826;5.850;2022-08-03T08:03:46;23.10;70.62
67054;SHT31;53960;51.826;5.850;2022-08-03T08:06:11;23.20;70.10
67054;SHT31;53960;51.826;5.850;2022-08-03T08:08:37;23.24;70.38
67054;SHT31;53960;51.826;5.850;2022-08-03T08:11:03;23.27;69.81
67054;SHT31;53960;51.826;5.850;2022-08-03T08:13:28;23.34;69.65
67054;SHT31;53960;51.826;5.850;2022-08-03T08:15:53;23.41;69.65
67054;SHT31;53960;51.826;5.850;2022-08-03T08:18:19;23.52;68.76
67054;SHT31;53960;51.826;5.850;2022-08-03T08:20:44;23.58;67.89
67054;SHT31;53960;51.826;5.850;2022-08-03T08:23:09;23.59;67.71
67054;SHT31;53960;51.826;5.850;2022-08-03T08:25:34;23.64;66.79
67054;SHT31;53960;51.826;5.850;2022-08-03T08:28:00;23.71;67.26
67054;SHT31;53960;51.826;5.850;2022-08-03T08:30:27;23.83;66.31
67054;SHT31;53960;51.826;5.850;2022-08-03T08:32:53;23.85;66.48
67054;SHT31;53960;51.826;5.850;2022-08-03T08:35:18;23.96;66.30
67054;SHT31;53960;51.826;5.850;2022-08-03T08:37:44;24.08;65.70
67054;SHT31;53960;51.826;5.850;2022-08-03T08:40:10;24.22;65.70
67054;SHT31;53960;51.826;5.850;2022-08-03T08:42:38;24.30;64.75
67054;SHT31;53960;51.826;5.850;2022-08-03T08:45:04;24.30;64.61
67054;SHT31;53960;51.826;5.850;2022-08-03T08:47:31;24.34;65.01
67054;SHT31;53960;51.826;5.850;2022-08-03T08:49:58;24.43;64.84
67054;SHT31;53960;51.826;5.850;2022-08-03T08:52:26;24.47;64.61
67054;SHT31;53960;51.826;5.850;2022-08-03T08:54:58;24.51;64.22
67054;SHT31;53960;51.826;5.850;2022-08-03T08:57:28;24.60;63.31
67054;SHT31;53960;51.826;5.850;2022-08-03T08:59:55;24.68;63.78
67054;SHT31;53960;51.826;5.850;2022-08-03T09:02:22;24.74;62.93
67054;SHT31;53960;51.826;5.850;2022-08-03T09:04:48;24.72;63.25
67054;SHT31;53960;51.826;5.850;2022-08-03T09:07:13;24.87;63.17
67054;SHT31;53960;51.826;5.850;2022-08-03T09:09:38;24.91;62.99
67054;SHT31;53960;51.826;5.850;2022-08-03T09:12:04;24.92;63.02
67054;SHT31;53960;51.826;5.850;2022-08-03T09:14:29;25.04;63.14
67054;SHT31;53960;51.826;5.850;2022-08-03T09:16:59;25.07;62.24
67054;SHT31;53960;51.826;5.850;2022-08-03T09:19:29;25.23;63.05
67054;SHT31;53960;51.826;5.850;2022-08-03T09:22:15;25.58;61.08
67054;SHT31;53960;51.826;5.850;2022-08-03T09:24:55;25.67;60.08
67054;SHT31;53960;51.826;5.850;2022-08-03T09:27:21;25.66;60.45
67054;SHT31;53960;51.826;5.850;2022-08-03T09:29:47;25.81;61.19
67054;SHT31;53960;51.826;5.850;2022-08-03T09:32:13;25.94;59.36
67054;SHT31;53960;51.826;5.850;2022-08-03T09:34:39;26.04;59.48
67054;SHT31;53960;51.826;5.850;2022-08-03T09:37:13;26.11;58.40
67054;SHT31;53960;51.826;5.850;2022-08-03T09:39:39;26.04;58.13
67054;SHT31;53960;51.826;5.850;2022-08-03T09:42:18;26.17;58.51
67054;SHT31;53960;51.826;5.850;2022-08-03T09:44:48;26.20;57.83
67054;SHT31;53960;51.826;5.850;2022-08-03T09:47:30;26.22;58.45
67054;SHT31;53960;51.826;5.850;2022-08-03T09:50:07;26.31;57.52
67054;SHT31;53960;51.826;5.850;2022-08-03T09:52:39;26.34;57.02
67054;SHT31;53960;51.826;5.850;2022-08-03T09:55:11;26.37;57.16
67054;SHT31;53960;51.826;5.850;2022-08-03T09:57:37;26.52;57.00
67054;SHT31;53960;51.826;5.850;2022-08-03T10:00:23;26.56;56.51
67054;SHT31;53960;51.826;5.850;2022-08-03T10:02:48;26.71;56.32
67054;SHT31;53960;51.826;5.850;2022-08-03T10:05:14;26.78;55.87
67054;SHT31;53960;51.826;5.850;2022-08-03T10:07:48;26.82;56.35
67054;SHT31;53960;51.826;5.850;2022-08-03T10:10:15;26.83;55.85
67054;SHT31;53960;51.826;5.850;2022-08-03T10:12:42;26.99;56.30
67054;SHT31;53960;51.826;5.850;2022-08-03T10:15:08;27.08;55.77
67054;SHT31;53960;51.826;5.850;2022-08-03T10:17:34;26.97;54.97
67054;SHT31;53960;51.826;5.850;2022-08-03T10:20:00;27.04;56.35
67054;SHT31;53960;51.826;5.850;2022-08-03T10:22:29;27.24;56.17
67054;SHT31;53960;51.826;5.850;2022-08-03T10:25:08;27.27;54.61
67054;SHT31;53960;51.826;5.850;2022-08-03T10:27:37;27.24;55.25
67054;SHT31;53960;51.826;5.850;2022-08-03T10:30:05;27.40;55.10
67054;SHT31;53960;51.826;5.850;2022-08-03T10:32:40;27.48;54.08
67054;SHT31;53960;51.826;5.850;2022-08-03T10:35:14;27.53;54.28
67054;SHT31;53960;51.826;5.850;2022-08-03T10:37:42;27.61;53.90
67054;SHT31;53960;51.826;5.850;2022-08-03T10:40:12;27.65;53.82
67054;SHT31;53960;51.826;5.850;2022-08-03T10:42:40;27.64;53.90
67054;SHT31;53960;51.826;5.850;2022-08-03T10:45:13;27.54;53.73
67054;SHT31;53960;51.826;5.850;2022-08-03T10:47:39;27.64;54.61
67054;SHT31;53960;51.826;5.850;2022-08-03T10:50:05;27.72;53.48
67054;SHT31;53960;51.826;5.850;2022-08-03T10:52:31;27.86;53.75
67054;SHT31;53960;51.826;5.850;2022-08-03T10:54:56;27.86;52.53
67054;SHT31;53960;51.826;5.850;2022-08-03T10:57:53;27.99;52.45
67054;SHT31;53960;51.826;5.850;2022-08-03T11:00:23;28.13;51.91
67054;SHT31;53960;51.826;5.850;2022-08-03T11:03:08;28.08;51.35
67054;SHT31;53960;51.826;5.850;2022-08-03T11:05:37;27.96;52.09
67054;SHT31;53960;51.826;5.850;2022-08-03T11:08:21;28.10;51.82
67054;SHT31;53960;51.826;5.850;2022-08-03T11:10:49;28.26;52.59
67054;SHT31;53960;51.826;5.850;2022-08-03T11:13:16;28.37;50.13
67054;SHT31;53960;51.826;5.850;2022-08-03T11:15:44;28.46;50.73
67054;SHT31;53960;51.826;5.850;2022-08-03T11:18:12;28.63;50.10
67054;SHT31;53960;51.826;5.850;2022-08-03T11:20:51;28.67;50.19
67054;SHT31;53960;51.826;5.850;2022-08-03T11:23:20;28.77;49.93
67054;SHT31;53960;51.826;5.850;2022-08-03T11:26:19;28.97;49.02
67054;SHT31;53960;51.826;5.850;2022-08-03T11:28:47;29.11;49.15
67054;SHT31;53960;51.826;5.850;2022-08-03T11:34:06;29.18;46.75
67054;SHT31;53960;51.826;5.850;2022-08-03T11:39:42;28.90;47.56
67054;SHT31;53960;51.826;5.850;2022-08-03T11:42:38;29.05;48.14
67054;SHT31;53960;51.826;5.850;2022-08-03T11:45:06;29.11;47.18
67054;SHT31;53960;51.826;5.850;2022-08-03T11:47:35;29.24;47.78
67054;SHT31;53960;51.826;5.850;2022-08-03T11:50:01;29.21;47.54
67054;SHT31;53960;51.826;5.850;2022-08-03T11:52:33;29.25;46.76
67054;SHT31;53960;51.826;5.850;2022-08-03T11:54:59;29.15;47.29
67054;SHT31;53960;51.826;5.850;2022-08-03T11:57:29;29.31;47.25
67054;SHT31;53960;51.826;5.850;2022-08-03T11:59:55;29.42;47.24
67054;SHT31;53960;51.826;5.850;2022-08-03T12:02:20;29.35;46.72
67054;SHT31;53960;51.826;5.850;2022-08-03T12:04:57;29.43;46.24
67054;SHT31;53960;51.826;5.850;2022-08-03T12:07:23;29.46;45.53
67054;SHT31;53960;51.826;5.850;2022-08-03T12:10:08;29.56;45.67
67054;SHT31;53960;51.826;5.850;2022-08-03T12:12:34;29.46;45.95
67054;SHT31;53960;51.826;5.850;2022-08-03T12:15:01;29.41;46.01
67054;SHT31;53960;51.826;5.850;2022-08-03T12:17:33;29.59;45.59
67054;SHT31;53960;51.826;5.850;2022-08-03T12:19:59;29.70;45.58
67054;SHT31;53960;51.826;5.850;2022-08-03T12:22:38;29.83;44.80
67054;SHT31;53960;51.826;5.850;2022-08-03T12:25:07;29.84;44.68
67054;SHT31;53960;51.826;5.850;2022-08-03T12:27:33;29.76;44.54
67054;SHT31;53960;51.826;5.850;2022-08-03T12:29:59;29.56;45.08
67054;SHT31;53960;51.826;5.850;2022-08-03T12:32:29;29.45;45.76
67054;SHT31;53960;51.826;5.850;2022-08-03T12:34:56;29.62;45.76
67054;SHT31;53960;51.826;5.850;2022-08-03T12:37:25;29.86;44.91
67054;SHT31;53960;51.826;5.850;2022-08-03T12:39:52;30.00;45.07
67054;SHT31;53960;51.826;5.850;2022-08-03T12:42:17;30.09;44.64
67054;SHT31;53960;51.826;5.850;2022-08-03T12:44:43;30.10;44.44
67054;SHT31;53960;51.826;5.850;2022-08-03T12:47:10;30.03;43.98
67054;SHT31;53960;51.826;5.850;2022-08-03T12:49:51;29.79;44.08
67054;SHT31;53960;51.826;5.850;2022-08-03T12:52:19;29.94;43.55
67054;SHT31;53960;51.826;5.850;2022-08-03T12:54:58;29.93;43.55
67054;SHT31;53960;51.826;5.850;2022-08-03T12:57:24;30.04;43.44
67054;SHT31;53960;51.826;5.850;2022-08-03T12:59:50;30.27;44.33
67054;SHT31;53960;51.826;5.850;2022-08-03T13:02:20;30.41;42.82
67054;SHT31;53960;51.826;5.850;2022-08-03T13:04:47;30.42;43.43
67054;SHT31;53960;51.826;5.850;2022-08-03T13:07:13;30.34;43.91
67054;SHT31;53960;51.826;5.850;2022-08-03T13:09:47;30.32;43.82
67054;SHT31;53960;51.826;5.850;2022-08-03T13:14:44;30.25;44.26
67054;SHT31;53960;51.826;5.850;2022-08-03T13:17:10;30.40;44.32
67054;SHT31;53960;51.826;5.850;2022-08-03T13:19:36;30.51;44.16
67054;SHT31;53960;51.826;5.850;2022-08-03T13:22:21;30.49;44.51
67054;SHT31;53960;51.826;5.850;2022-08-03T13:24:50;30.49;44.29
67054;SHT31;53960;51.826;5.850;2022-08-03T13:27:15;30.34;44.49
67054;SHT31;53960;51.826;5.850;2022-08-03T13:29:41;30.44;44.52
67054;SHT31;53960;51.826;5.850;2022-08-03T13:32:08;30.38;45.13
67054;SHT31;53960;51.826;5.850;2022-08-03T13:34:34;30.48;44.77
67054;SHT31;53960;51.826;5.850;2022-08-03T13:36:59;30.58;44.82
67054;SHT31;53960;51.826;5.850;2022-08-03T13:39:24;30.64;44.84
67054;SHT31;53960;51.826;5.850;2022-08-03T13:41:50;30.57;44.81
67054;SHT31;53960;51.826;5.850;2022-08-03T13:44:16;30.54;44.87
67054;SHT31;53960;51.826;5.850;2022-08-03T13:46:43;30.64;45.22
67054;SHT31;53960;51.826;5.850;2022-08-03T13:49:08;30.93;44.68
67054;SHT31;53960;51.826;5.850;2022-08-03T13:51:33;31.10;45.00
67054;SHT31;53960;51.826;5.850;2022-08-03T13:53:59;31.09;44.94
67054;SHT31;53960;51.826;5.850;2022-08-03T13:56:25;31.08;45.17
67054;SHT31;53960;51.826;5.850;2022-08-03T13:58:51;30.96;44.99
67054;SHT31;53960;51.826;5.850;2022-08-03T14:01:16;30.95;45.69
67054;SHT31;53960;51.826;5.850;2022-08-03T14:03:42;30.99;45.44
67054;SHT31;53960;51.826;5.850;2022-08-03T14:06:07;30.92;45.92
67054;SHT31;53960;51.826;5.850;2022-08-03T14:08:32;30.92;46.13
67054;SHT31;53960;51.826;5.850;2022-08-03T14:10:58;30.76;46.28
67054;SHT31;53960;51.826;5.850;2022-08-03T14:13:23;30.85;46.18
67054;SHT31;53960;51.826;5.850;2022-08-03T14:15:49;30.72;45.99
67054;SHT31;53960;51.826;5.850;2022-08-03T14:18:16;30.76;45.77
67054;SHT31;53960;51.826;5.850;2022-08-03T14:20:42;30.78;45.88
67054;SHT31;53960;51.826;5.850;2022-08-03T14:23:07;30.64;46.15
67054;SHT31;53960;51.826;5.850;2022-08-03T14:25:33;30.57;46.63
67054;SHT31;53960;51.826;5.850;2022-08-03T14:27:58;30.38;47.28
67054;SHT31;53960;51.826;5.850;2022-08-03T14:30:26;30.57;47.10
67054;SHT31;53960;51.826;5.850;2022-08-03T14:32:51;30.71;47.47
67054;SHT31;53960;51.826;5.850;2022-08-03T14:35:16;30.72;45.87
67054;SHT31;53960;51.826;5.850;2022-08-03T14:37:42;30.75;46.00
67054;SHT31;53960;51.826;5.850;2022-08-03T14:40:07;30.92;46.71
67054;SHT31;53960;51.826;5.850;2022-08-03T14:42:35;30.85;46.18
67054;SHT31;53960;51.826;5.850;2022-08-03T14:45:00;30.88;46.25
67054;SHT31;53960;51.826;5.850;2022-08-03T14:47:26;30.98;45.76
67054;SHT31;53960;51.826;5.850;2022-08-03T14:49:51;30.76;46.05
67054;SHT31;53960;51.826;5.850;2022-08-03T14:52:16;30.72;46.31
67054;SHT31;53960;51.826;5.850;2022-08-03T14:54:41;30.80;46.73
67054;SHT31;53960;51.826;5.850;2022-08-03T14:57:07;30.86;46.44
67054;SHT31;53960;51.826;5.850;2022-08-03T14:59:32;30.74;46.31
67054;SHT31;53960;51.826;5.850;2022-08-03T15:01:57;30.86;46.69
67054;SHT31;53960;51.826;5.850;2022-08-03T15:04:23;30.98;46.47
67054;SHT31;53960;51.826;5.850;2022-08-03T15:06:48;30.98;46.52
67054;SHT31;53960;51.826;5.850;2022-08-03T15:09:13;30.72;46.58
67054;SHT31;53960;51.826;5.850;2022-08-03T15:11:39;30.90;46.54
67054;SHT31;53960;51.826;5.850;2022-08-03T15:14:04;31.04;46.62
67054;SHT31;53960;51.826;5.850;2022-08-03T15:16:29;31.20;46.49
67054;SHT31;53960;51.826;5.850;2022-08-03T15:18:56;31.19;46.10
67054;SHT31;53960;51.826;5.850;2022-08-03T15:21:21;31.26;45.86
67054;SHT31;53960;51.826;5.850;2022-08-03T15:23:46;31.31;45.83
67054;SHT31;53960;51.826;5.850;2022-08-03T15:26:11;31.31;45.65
67054;SHT31;53960;51.826;5.850;2022-08-03T15:28:37;31.30;45.75
67054;SHT31;53960;51.826;5.850;2022-08-03T15:31:02;31.26;46.19
67054;SHT31;53960;51.826;5.850;2022-08-03T15:33:28;31.27;46.67
67054;SHT31;53960;51.826;5.850;2022-08-03T15:35:53;31.23;46.03
67054;SHT31;53960;51.826;5.850;2022-08-03T15:38:19;31.12;46.04
67054;SHT31;53960;51.826;5.850;2022-08-03T15:40:46;31.22;46.34
67054;SHT31;53960;51.826;5.850;2022-08-03T15:43:12;31.25;46.24
67054;SHT31;53960;51.826;5.850;2022-08-03T15:45:37;31.23;46.20